Time;durP1;ratioP1;P1;durP2;ratioP2;P2;SDS_P1;SDS_P2;PMS_P1;PMS_P2;Temp;Humidity;BMP_temperature;BMP_pressure;BME280_temperature;BME280_humidity;BME280_pressure;Samples;Min_cycle;Max_cycle;Signal;HPM_P1;HPM_P2
2023/07/12 00:33:59;;;;;;;0.75;0.52;;;;;;;;;;6258792;22;20198;-92
2023/07/12 00:37:11;;;;;;;0.60;0.60;;;;;;;;;;6247263;22;20195;-92
2023/07/12 00:40:38;;;;;;;0.40;0.40;;;;;;;;;;6244882;23;20167;-93
2023/07/12 00:43:45;;;;;;;0.65;0.57;;;;;;;;;;6226310;22;20305;-92
2023/07/12 00:46:52;;;;;;;0.50;0.50;;;;;;;;;;6244699;23;20190;-92
2023/07/12 00:50:00;;;;;;;0.60;0.60;;;;;;;;;;6245725;23;20167;-92
2023/07/12 00:53:05;;;;;;;0.60;0.60;;;;;;;;;;6245457;23;20179;-96
2023/07/12 00:56:13;;;;;;;2.75;1.35;;;;;;;;;;6242609;23;20166;-94
2023/07/12 00:59:20;;;;;;;1.95;0.73;;;;;;;;;;6242517;23;20166;-94
2023/07/12 01:02:26;;;;;;;0.25;0.25;;;;;;;;;;6243049;23;20151;-93
2023/07/12 01:09:52;;;;;;;0.43;0.43;;;;;;;;;;6260528;23;20162;-91
2023/07/12 01:12:58;;;;;;;3.63;1.30;;;;;;;;;;6242417;22;20173;-93
2023/07/12 01:16:04;;;;;;;1.05;0.95;;;;;;;;;;6243125;23;20166;-92
2023/07/12 01:19:11;;;;;;;1.15;1.05;;;;;;;;;;6243752;23;20162;-91
2023/07/12 01:22:18;;;;;;;0.22;0.22;;;;;;;;;;6242889;23;20162;-92
2023/07/12 01:25:33;;;;;;;0.57;0.57;;;;;;;;;;6245098;22;20227;-92
2023/07/12 01:28:39;;;;;;;1.00;0.90;;;;;;;;;;6243097;22;20145;-92
2023/07/12 01:32:21;;;;;;;1.02;0.98;;;;;;;;;;6244775;22;20150;-91
2023/07/12 01:35:27;;;;;;;0.25;0.25;;;;;;;;;;6229999;23;20195;-91
2023/07/12 01:38:34;;;;;;;0.55;0.55;;;;;;;;;;6229656;23;20211;-93
2023/07/12 01:41:39;;;;;;;1.98;0.70;;;;;;;;;;6231372;23;20171;-92
2023/07/12 01:44:45;;;;;;;0.20;0.20;;;;;;;;;;6232190;23;20152;-93
2023/07/12 01:47:51;;;;;;;0.60;0.60;;;;;;;;;;6230824;23;20175;-93
2023/07/12 01:50:56;;;;;;;0.73;0.73;;;;;;;;;;6230895;23;20597;-92
2023/07/12 01:54:03;;;;;;;0.22;0.22;;;;;;;;;;6229257;23;20206;-91
2023/07/12 01:57:08;;;;;;;0.40;0.40;;;;;;;;;;6229828;23;20202;-93
2023/07/12 02:00:15;;;;;;;0.40;0.40;;;;;;;;;;6231201;23;20163;-94
2023/07/12 02:03:23;;;;;;;5.05;0.88;;;;;;;;;;6230492;23;20163;-93
2023/07/12 02:06:31;;;;;;;0.32;0.32;;;;;;;;;;6231305;23;20247;-93
2023/07/12 02:09:41;;;;;;;0.50;0.50;;;;;;;;;;6230360;23;20214;-94
2023/07/12 02:12:47;;;;;;;0.40;0.40;;;;;;;;;;6230316;23;20170;-93
2023/07/12 02:15:53;;;;;;;0.50;0.50;;;;;;;;;;6231080;23;20240;-93
2023/07/12 02:18:58;;;;;;;0.40;0.40;;;;;;;;;;6233481;23;20505;-93
2023/07/12 02:22:14;;;;;;;0.82;0.82;;;;;;;;;;6235293;23;20191;-91
2023/07/12 02:25:21;;;;;;;2.28;1.27;;;;;;;;;;6233717;23;20151;-93
2023/07/12 02:28:28;;;;;;;2.72;0.88;;;;;;;;;;6232662;23;20228;-93
2023/07/12 02:32:17;;;;;;;0.82;0.82;;;;;;;;;;6231909;23;20154;-93
2023/07/12 02:35:27;;;;;;;0.57;0.57;;;;;;;;;;6231242;23;20706;-91
2023/07/12 02:38:32;;;;;;;1.10;1.02;;;;;;;;;;6232564;23;20230;-92
2023/07/12 02:41:39;;;;;;;0.40;0.40;;;;;;;;;;6230283;23;20251;-92
2023/07/12 02:44:45;;;;;;;0.63;0.63;;;;;;;;;;6232493;23;20168;-92
2023/07/12 02:47:50;;;;;;;0.50;0.50;;;;;;;;;;6231882;23;20183;-92
2023/07/12 02:50:56;;;;;;;0.50;0.50;;;;;;;;;;6230637;23;20152;-92
2023/07/12 02:54:01;;;;;;;0.45;0.45;;;;;;;;;;6230792;23;20207;-92
2023/07/12 02:57:14;;;;;;;17.42;1.38;;;;;;;;;;6232616;23;20234;-93
2023/07/12 03:00:21;;;;;;;1.15;0.77;;;;;;;;;;6231717;23;20219;-94
2023/07/12 03:03:28;;;;;;;0.38;0.38;;;;;;;;;;6235678;23;20234;-92
2023/07/12 03:10:09;;;;;;;0.70;0.70;;;;;;;;;;6230418;23;20175;-92
2023/07/12 03:13:15;;;;;;;0.38;0.38;;;;;;;;;;6230088;23;20167;-93
2023/07/12 03:16:20;;;;;;;1.60;0.57;;;;;;;;;;6232692;23;20216;-92
2023/07/12 03:19:26;;;;;;;1.58;0.88;;;;;;;;;;6227994;23;20294;-92
2023/07/12 03:23:04;;;;;;;1.00;0.70;;;;;;;;;;6230552;23;20163;-93
2023/07/12 03:26:09;;;;;;;0.30;0.30;;;;;;;;;;6232905;23;20238;-91
2023/07/12 03:29:16;;;;;;;0.50;0.50;;;;;;;;;;6232787;23;20279;-92
2023/07/12 03:32:51;;;;;;;0.60;0.60;;;;;;;;;;6228924;23;20167;-93
2023/07/12 03:35:56;;;;;;;0.30;0.30;;;;;;;;;;6229674;23;20167;-93
2023/07/12 03:39:01;;;;;;;0.45;0.45;;;;;;;;;;6231978;23;20179;-95
2023/07/12 03:42:07;;;;;;;0.30;0.30;;;;;;;;;;6229964;23;20167;-92
2023/07/12 03:45:14;;;;;;;0.45;0.45;;;;;;;;;;6228845;23;20171;-93
2023/07/12 03:48:19;;;;;;;0.65;0.65;;;;;;;;;;6229551;23;20170;-93
2023/07/12 03:51:24;;;;;;;0.40;0.40;;;;;;;;;;6228320;23;20170;-93
2023/07/12 03:54:30;;;;;;;4.32;1.42;;;;;;;;;;6227084;23;20175;-91
2023/07/12 03:57:41;;;;;;;0.43;0.43;;;;;;;;;;6227627;23;20266;-92
2023/07/12 04:00:53;;;;;;;0.85;0.52;;;;;;;;;;6226891;23;20170;-92
2023/07/12 04:03:58;;;;;;;0.47;0.45;;;;;;;;;;6228071;23;20247;-91
2023/07/12 04:07:38;;;;;;;0.28;0.28;;;;;;;;;;6227458;23;20167;-94
2023/07/12 04:10:43;;;;;;;1.73;0.95;;;;;;;;;;6229689;23;20167;-92
2023/07/12 04:13:48;;;;;;;0.50;0.50;;;;;;;;;;6229404;23;20166;-93
2023/07/12 04:16:59;;;;;;;0.30;0.30;;;;;;;;;;6228382;23;20167;-91
2023/07/12 04:20:05;;;;;;;0.45;0.45;;;;;;;;;;6230441;23;20172;-92
2023/07/12 04:27:03;;;;;;;0.47;0.47;;;;;;;;;;6229373;23;20158;-91
2023/07/12 04:34:27;;;;;;;0.52;0.52;;;;;;;;;;6248825;23;20221;-91
2023/07/12 04:37:33;;;;;;;0.60;0.60;;;;;;;;;;6242632;23;20182;-92
2023/07/12 04:40:39;;;;;;;0.50;0.50;;;;;;;;;;6241092;23;20222;-93
2023/07/12 04:43:45;;;;;;;0.40;0.40;;;;;;;;;;6243674;23;20158;-92
2023/07/12 04:46:50;;;;;;;0.90;0.90;;;;;;;;;;6242780;22;20495;-91
2023/07/12 04:49:57;;;;;;;0.73;0.73;;;;;;;;;;6242214;23;20174;-93
2023/07/12 04:53:02;;;;;;;3.50;1.33;;;;;;;;;;6240439;23;20174;-94
2023/07/12 04:56:08;;;;;;;1.23;1.10;;;;;;;;;;6243208;23;20211;-92
2023/07/12 04:59:15;;;;;;;1.00;0.85;;;;;;;;;;6242439;22;20529;-91
2023/07/12 05:02:20;;;;;;;4.13;0.98;;;;;;;;;;6244188;23;20177;-91
2023/07/12 05:05:29;;;;;;;0.30;0.30;;;;;;;;;;6248368;23;20217;-94
2023/07/12 05:08:34;;;;;;;0.60;0.60;;;;;;;;;;6246966;22;20161;-94
2023/07/12 05:11:39;;;;;;;0.70;0.70;;;;;;;;;;6246062;23;20162;-94
2023/07/12 05:14:45;;;;;;;1.77;0.55;;;;;;;;;;6245849;22;20171;-94
2023/07/12 05:17:50;;;;;;;0.85;0.63;;;;;;;;;;6262714;22;20214;-93
2023/07/12 05:21:02;;;;;;;0.30;0.30;;;;;;;;;;6246634;23;20190;-93
2023/07/12 05:28:35;;;;;;;10.25;3.35;;;;;;;;;;6261254;22;20178;-93
2023/07/12 05:31:45;;;;;;;9.15;3.70;;;;;;;;;;6242035;23;20167;-93
2023/07/12 05:34:50;;;;;;;12.93;3.50;;;;;;;;;;6241484;23;20233;-94
2023/07/12 05:37:57;;;;;;;10.55;4.40;;;;;;;;;;6243532;23;20239;-92
2023/07/12 05:41:02;;;;;;;8.82;3.67;;;;;;;;;;6244768;23;20150;-94
2023/07/12 05:44:07;;;;;;;9.88;4.10;;;;;;;;;;6245444;23;20221;-94
2023/07/12 05:47:13;;;;;;;10.02;4.45;;;;;;;;;;6247207;23;20240;-94
2023/07/12 05:50:19;;;;;;;9.10;3.67;;;;;;;;;;6247054;23;20166;-94
2023/07/12 05:53:34;;;;;;;12.60;3.55;;;;;;;;;;6246976;23;20162;-92
2023/07/12 05:56:39;;;;;;;10.13;3.40;;;;;;;;;;6247758;23;20233;-93
2023/07/12 05:59:45;;;;;;;7.78;3.00;;;;;;;;;;6246136;23;20170;-91
2023/07/12 06:02:51;;;;;;;8.98;3.00;;;;;;;;;;6244072;23;20249;-91
2023/07/12 06:06:22;;;;;;;13.07;3.80;;;;;;;;;;6242911;23;20186;-92
2023/07/12 06:09:37;;;;;;;15.05;3.85;;;;;;;;;;6243718;22;20197;-92
2023/07/12 06:12:43;;;;;;;11.82;4.00;;;;;;;;;;6245282;23;20450;-92
2023/07/12 06:15:48;;;;;;;11.63;3.53;;;;;;;;;;6243945;23;20162;-89
2023/07/12 06:18:53;;;;;;;6.85;3.20;;;;;;;;;;6240296;22;20197;-94
2023/07/12 06:21:59;;;;;;;13.48;3.90;;;;;;;;;;6238968;23;20190;-92
2023/07/12 06:25:07;;;;;;;6.95;2.97;;;;;;;;;;6240952;23;20234;-93
2023/07/12 06:28:12;;;;;;;6.78;3.33;;;;;;;;;;6242473;23;20166;-92
2023/07/12 06:31:27;;;;;;;6.05;2.70;;;;;;;;;;6241538;23;20167;-92
2023/07/12 06:34:32;;;;;;;7.65;3.30;;;;;;;;;;6244221;23;20187;-93
2023/07/12 06:37:41;;;;;;;9.98;3.10;;;;;;;;;;6243730;22;20151;-92
2023/07/12 06:40:48;;;;;;;7.35;3.40;;;;;;;;;;6240334;22;20163;-91
2023/07/12 06:43:53;;;;;;;9.07;3.00;;;;;;;;;;6238453;22;20206;-92
2023/07/12 06:46:58;;;;;;;9.98;3.00;;;;;;;;;;6241281;23;20278;-93
2023/07/12 06:50:04;;;;;;;7.65;3.13;;;;;;;;;;6242007;23;20166;-92
2023/07/12 06:53:09;;;;;;;12.90;2.95;;;;;;;;;;6242499;23;20163;-89
2023/07/12 06:56:16;;;;;;;7.35;2.30;;;;;;;;;;6241614;23;20174;-91
2023/07/12 06:59:21;;;;;;;10.18;2.88;;;;;;;;;;6243043;22;20527;-92
2023/07/12 07:02:27;;;;;;;9.02;3.20;;;;;;;;;;6242988;23;20163;-92
2023/07/12 07:08:52;;;;;;;7.70;2.80;;;;;;;;;;6261775;23;20178;-92
2023/07/12 07:11:59;;;;;;;6.35;2.53;;;;;;;;;;6243564;22;20195;-91
2023/07/12 07:15:05;;;;;;;9.48;2.80;;;;;;;;;;6244695;23;20169;-92
2023/07/12 07:18:10;;;;;;;8.43;2.72;;;;;;;;;;6246054;23;20293;-93
2023/07/12 07:21:15;;;;;;;8.77;2.80;;;;;;;;;;6244744;23;20171;-90
2023/07/12 07:24:21;;;;;;;7.35;2.78;;;;;;;;;;6245935;23;20170;-91
2023/07/12 07:27:29;;;;;;;8.50;2.63;;;;;;;;;;6245961;23;20190;-91
2023/07/12 07:30:35;;;;;;;7.55;2.90;;;;;;;;;;6247664;22;20171;-88
2023/07/12 07:33:40;;;;;;;5.97;2.78;;;;;;;;;;6246362;23;20674;-90
2023/07/12 07:36:46;;;;;;;9.20;2.97;;;;;;;;;;6246218;23;20179;-94
2023/07/12 07:39:51;;;;;;;12.93;3.13;;;;;;;;;;6244867;23;20186;-91
2023/07/12 07:42:58;;;;;;;5.85;2.95;;;;;;;;;;6244661;22;20212;-90
2023/07/12 07:46:05;;;;;;;8.52;2.67;;;;;;;;;;6245152;23;20288;-90
2023/07/12 07:49:20;;;;;;;6.78;3.22;;;;;;;;;;6247115;22;20170;-91
2023/07/12 07:52:26;;;;;;;6.45;2.95;;;;;;;;;;6244825;23;20170;-94
2023/07/12 07:55:32;;;;;;;7.68;2.72;;;;;;;;;;6242278;23;20170;-90
2023/07/12 07:58:43;;;;;;;10.35;3.17;;;;;;;;;;6243705;22;20250;-90
2023/07/12 08:01:48;;;;;;;7.40;2.92;;;;;;;;;;6243598;23;20171;-90
2023/07/12 08:04:54;;;;;;;6.20;3.10;;;;;;;;;;6244030;23;20318;-91
2023/07/12 08:08:00;;;;;;;7.78;3.10;;;;;;;;;;6247258;23;20226;-91
2023/07/12 08:11:06;;;;;;;10.02;3.35;;;;;;;;;;6247160;23;20170;-90
2023/07/12 08:14:15;;;;;;;10.65;2.90;;;;;;;;;;6245559;22;20171;-91
2023/07/12 08:17:20;;;;;;;14.88;3.20;;;;;;;;;;6243474;22;20170;-89
2023/07/12 08:20:26;;;;;;;9.27;3.13;;;;;;;;;;6242409;23;20171;-91
2023/07/12 08:23:32;;;;;;;11.73;3.45;;;;;;;;;;6242193;23;20175;-91
2023/07/12 08:26:37;;;;;;;8.77;3.30;;;;;;;;;;6244052;23;20174;-92
2023/07/12 08:29:45;;;;;;;5.97;2.70;;;;;;;;;;6245364;23;20166;-92
2023/07/12 08:32:50;;;;;;;6.18;2.97;;;;;;;;;;6242820;22;20167;-91
2023/07/12 08:35:55;;;;;;;11.98;3.30;;;;;;;;;;6243057;23;20227;-92
2023/07/12 08:39:00;;;;;;;10.73;3.17;;;;;;;;;;6244650;22;20190;-92
2023/07/12 08:42:10;;;;;;;7.18;3.28;;;;;;;;;;6244746;22;20155;-92
2023/07/12 08:45:28;;;;;;;10.10;2.92;;;;;;;;;;6245242;22;20210;-92
2023/07/12 08:48:34;;;;;;;9.07;3.50;;;;;;;;;;6244138;23;20170;-91
2023/07/12 08:51:42;;;;;;;9.90;3.28;;;;;;;;;;6246568;23;20177;-91
2023/07/12 08:54:48;;;;;;;6.45;3.45;;;;;;;;;;6244932;23;20303;-92
2023/07/12 08:57:55;;;;;;;9.23;3.08;;;;;;;;;;6241051;23;20217;-92
2023/07/12 09:01:10;;;;;;;12.60;3.50;;;;;;;;;;6243311;22;20186;-90
2023/07/12 09:04:24;;;;;;;6.47;3.13;;;;;;;;;;6242271;23;20170;-92
2023/07/12 09:07:31;;;;;;;9.23;3.40;;;;;;;;;;6242436;23;20185;-90
2023/07/12 09:10:42;;;;;;;8.20;2.90;;;;;;;;;;6244640;23;20209;-92
2023/07/12 09:13:47;;;;;;;7.43;3.05;;;;;;;;;;6242551;23;20167;-92
2023/07/12 09:16:57;;;;;;;9.63;3.40;;;;;;;;;;6242325;23;20159;-92
2023/07/12 09:20:02;;;;;;;12.02;3.35;;;;;;;;;;6241186;23;20213;-92
2023/07/12 09:23:15;;;;;;;13.32;3.83;;;;;;;;;;6241472;23;20174;-91
2023/07/12 09:26:22;;;;;;;10.68;4.13;;;;;;;;;;6241224;23;20239;-92
2023/07/12 09:29:28;;;;;;;9.35;3.63;;;;;;;;;;6241429;23;20174;-89
2023/07/12 09:32:52;;;;;;;10.20;3.47;;;;;;;;;;6243792;23;20202;-90
2023/07/12 09:36:05;;;;;;;11.35;3.53;;;;;;;;;;6242686;23;20171;-92
2023/07/12 09:39:12;;;;;;;10.15;3.40;;;;;;;;;;6242149;23;20182;-90
2023/07/12 09:42:17;;;;;;;12.18;4.15;;;;;;;;;;6244552;22;20167;-93
2023/07/12 09:45:22;;;;;;;7.78;3.60;;;;;;;;;;6244566;23;20166;-90
2023/07/12 09:48:30;;;;;;;10.75;3.40;;;;;;;;;;6242887;23;20166;-92
2023/07/12 09:51:42;;;;;;;9.43;3.58;;;;;;;;;;6241749;23;20175;-89
2023/07/12 09:54:53;;;;;;;12.48;3.80;;;;;;;;;;6241965;22;20220;-91
2023/07/12 09:58:04;;;;;;;10.45;3.28;;;;;;;;;;6244095;23;20217;-93
2023/07/12 10:01:15;;;;;;;10.15;3.65;;;;;;;;;;6245445;23;20234;-89
2023/07/12 10:04:35;;;;;;;8.07;2.83;;;;;;;;;;6243258;23;20289;-90
2023/07/12 10:07:49;;;;;;;10.23;3.30;;;;;;;;;;6243416;22;20159;-91
2023/07/12 10:10:57;;;;;;;7.72;3.40;;;;;;;;;;6240862;23;20617;-90
2023/07/12 10:14:06;;;;;;;10.38;3.05;;;;;;;;;;6240438;23;20171;-92
2023/07/12 10:17:16;;;;;;;7.47;3.08;;;;;;;;;;6242010;23;20166;-92
2023/07/12 10:20:23;;;;;;;10.77;3.03;;;;;;;;;;6242087;22;20190;-91
2023/07/12 10:23:31;;;;;;;7.18;2.95;;;;;;;;;;6240976;23;20169;-92
2023/07/12 10:26:37;;;;;;;8.70;2.70;;;;;;;;;;6240086;23;20625;-92
2023/07/12 10:29:46;;;;;;;8.55;2.65;;;;;;;;;;6240752;22;20166;-91
2023/07/12 10:32:54;;;;;;;6.65;2.92;;;;;;;;;;6243330;23;20197;-92
2023/07/12 10:36:04;;;;;;;9.30;2.83;;;;;;;;;;6242722;22;20215;-91
2023/07/12 10:39:12;;;;;;;7.88;2.70;;;;;;;;;;6245129;23;20225;-93
2023/07/12 10:46:16;;;;;;;8.38;2.35;;;;;;;;;;6261399;22;20194;-93
2023/07/12 10:49:43;;;;;;;5.80;2.42;;;;;;;;;;6244409;23;20236;-92
2023/07/12 10:53:02;;;;;;;6.65;2.72;;;;;;;;;;6246326;23;20186;-94
2023/07/12 10:56:18;;;;;;;5.22;2.10;;;;;;;;;;6244271;23;20174;-92
2023/07/12 10:59:41;;;;;;;8.63;2.50;;;;;;;;;;6244595;23;20190;-93
2023/07/12 11:02:50;;;;;;;6.47;2.30;;;;;;;;;;6243020;23;20185;-93
2023/07/12 11:06:00;;;;;;;9.90;2.83;;;;;;;;;;6246244;23;20293;-91
2023/07/12 11:09:10;;;;;;;7.95;2.20;;;;;;;;;;6244580;23;20170;-91
2023/07/12 11:12:18;;;;;;;11.18;2.42;;;;;;;;;;6242650;23;20226;-93
2023/07/12 11:15:24;;;;;;;5.07;2.20;;;;;;;;;;6245225;23;20173;-93
2023/07/12 11:18:33;;;;;;;11.90;2.28;;;;;;;;;;6246373;23;20185;-94
2023/07/12 11:26:03;;;;;;;4.15;1.98;;;;;;;;;;6262292;23;20162;-94
2023/07/12 11:29:27;;;;;;;5.80;2.42;;;;;;;;;;6249218;23;20201;-91
2023/07/12 11:32:34;;;;;;;6.35;1.80;;;;;;;;;;6243306;23;20166;-92
2023/07/12 11:35:43;;;;;;;9.52;1.95;;;;;;;;;;6245100;22;20169;-93
2023/07/12 11:38:49;;;;;;;3.40;1.75;;;;;;;;;;6245478;22;20170;-93
2023/07/12 11:41:56;;;;;;;5.30;2.10;;;;;;;;;;6244507;23;20162;-92
2023/07/12 11:45:04;;;;;;;7.60;2.05;;;;;;;;;;6246025;23;20169;-93
2023/07/12 11:48:10;;;;;;;5.85;2.15;;;;;;;;;;6245517;23;20162;-92
2023/07/12 11:51:18;;;;;;;5.70;2.15;;;;;;;;;;6246672;22;20238;-89
2023/07/12 11:54:25;;;;;;;8.60;2.00;;;;;;;;;;6244320;22;20197;-93
2023/07/12 11:57:40;;;;;;;3.72;1.80;;;;;;;;;;6246994;23;20145;-91
2023/07/12 12:00:48;;;;;;;3.88;1.90;;;;;;;;;;6249661;23;20246;-92
2023/07/12 12:03:54;;;;;;;4.80;2.05;;;;;;;;;;6268021;22;20211;-91
2023/07/12 12:10:33;;;;;;;8.30;2.58;;;;;;;;;;6246360;23;20193;-92
2023/07/12 12:13:42;;;;;;;7.00;2.22;;;;;;;;;;6248170;22;20166;-91
2023/07/12 12:16:53;;;;;;;7.93;2.80;;;;;;;;;;6249184;22;20211;-93
2023/07/12 12:20:11;;;;;;;3.97;2.10;;;;;;;;;;6247893;22;20272;-92
2023/07/12 12:23:53;;;;;;;8.25;2.20;;;;;;;;;;6248404;23;20170;-91
2023/07/12 12:26:59;;;;;;;5.20;1.77;;;;;;;;;;6245172;23;20212;-90
2023/07/12 12:30:23;;;;;;;7.05;2.90;;;;;;;;;;6249208;23;20165;-93
2023/07/12 12:33:31;;;;;;;7.72;2.20;;;;;;;;;;6246934;23;20181;-92
2023/07/12 12:36:36;;;;;;;5.68;2.05;;;;;;;;;;6245714;22;20226;-92
2023/07/12 12:39:47;;;;;;;6.07;2.75;;;;;;;;;;6245728;23;20189;-91
2023/07/12 12:42:54;;;;;;;5.53;2.47;;;;;;;;;;6247619;22;20153;-90
2023/07/12 12:49:36;;;;;;;6.50;2.60;;;;;;;;;;6248914;23;20155;-93
2023/07/12 12:52:44;;;;;;;6.72;2.50;;;;;;;;;;6248339;23;20190;-94
2023/07/12 13:00:09;;;;;;;6.30;2.22;;;;;;;;;;6262852;23;20736;-93
2023/07/12 13:03:16;;;;;;;9.85;2.72;;;;;;;;;;6242870;23;20217;-91
2023/07/12 13:10:38;;;;;;;7.57;2.85;;;;;;;;;;6266562;23;20166;-91
2023/07/12 16:47:53;;;;;;;14.77;7.03;;;;;;;;;;6216487;22;20198;-91
2023/07/12 16:51:01;;;;;;;19.70;6.32;;;;;;;;;;6247649;23;20201;-92
2023/07/12 16:54:06;;;;;;;12.13;6.93;;;;;;;;;;6245656;23;20178;-92
2023/07/12 17:01:05;;;;;;;15.63;7.07;;;;;;;;;;6253496;22;20238;-93
2023/07/12 22:12:10;;;;;;;10.82;4.25;;;;;;;;;;6220371;22;20199;-90
2023/07/12 22:15:16;;;;;;;8.52;3.70;;;;;;;;;;6243473;22;20219;-91
2023/07/12 22:18:24;;;;;;;8.32;4.40;;;;;;;;;;6247065;23;20166;-89
2023/07/12 22:21:33;;;;;;;10.77;4.30;;;;;;;;;;6247110;23;20198;-90
2023/07/12 22:24:40;;;;;;;7.38;3.90;;;;;;;;;;6244056;23;20209;-89
2023/07/12 22:28:00;;;;;;;10.98;4.03;;;;;;;;;;6243352;22;20150;-91
2023/07/12 22:31:33;;;;;;;8.90;4.60;;;;;;;;;;6240666;22;20167;-89
2023/07/12 22:34:40;;;;;;;9.20;4.18;;;;;;;;;;6244669;23;20166;-91
2023/07/12 22:37:46;;;;;;;11.68;5.63;;;;;;;;;;6245733;23;20169;-91
2023/07/12 22:40:52;;;;;;;10.77;4.70;;;;;;;;;;6244396;22;20181;-92
2023/07/12 22:43:57;;;;;;;8.40;4.47;;;;;;;;;;6244030;22;20166;-91
2023/07/12 22:47:06;;;;;;;7.80;4.18;;;;;;;;;;6244842;23;20183;-90
2023/07/12 22:50:13;;;;;;;9.50;4.28;;;;;;;;;;6247151;23;20198;-91
2023/07/12 22:53:19;;;;;;;7.10;3.38;;;;;;;;;;6243466;22;20166;-89
2023/07/12 22:56:26;;;;;;;8.43;3.92;;;;;;;;;;6244740;22;20169;-91
2023/07/12 22:59:31;;;;;;;7.47;4.30;;;;;;;;;;6247778;22;20174;-91
2023/07/12 23:02:37;;;;;;;12.60;4.85;;;;;;;;;;6246265;23;20219;-91
2023/07/12 23:09:58;;;;;;;10.48;4.30;;;;;;;;;;6260695;23;20602;-91
2023/07/12 23:13:03;;;;;;;10.27;4.82;;;;;;;;;;6242515;23;20500;-91
2023/07/12 23:16:13;;;;;;;10.98;4.57;;;;;;;;;;6242387;23;20682;-93
2023/07/12 23:19:18;;;;;;;10.98;5.45;;;;;;;;;;6241232;22;20166;-91
2023/07/12 23:22:26;;;;;;;12.30;5.40;;;;;;;;;;6241840;22;20162;-90
2023/07/12 23:25:33;;;;;;;11.93;5.70;;;;;;;;;;6241655;22;20179;-90
2023/07/12 23:28:38;;;;;;;17.48;6.05;;;;;;;;;;6242331;23;20170;-93
2023/07/12 23:31:43;;;;;;;13.48;5.72;;;;;;;;;;6242646;23;20505;-90
2023/07/12 23:34:48;;;;;;;9.68;5.72;;;;;;;;;;6241126;23;20669;-89
2023/07/12 23:37:53;;;;;;;12.93;6.13;;;;;;;;;;6242340;22;20158;-89
2023/07/12 23:41:00;;;;;;;12.25;6.00;;;;;;;;;;6241303;23;20193;-92
2023/07/12 23:44:05;;;;;;;13.15;5.28;;;;;;;;;;6240992;23;20167;-90
2023/07/12 23:47:10;;;;;;;15.40;5.97;;;;;;;;;;6241277;23;20170;-91
2023/07/12 23:50:16;;;;;;;10.57;5.15;;;;;;;;;;6239224;23;20174;-90
2023/07/12 23:53:21;;;;;;;10.55;5.38;;;;;;;;;;6240992;22;20194;-91
2023/07/12 23:56:28;;;;;;;12.07;5.13;;;;;;;;;;6240928;22;20489;-92
2023/07/12 23:59:33;;;;;;;7.80;5.10;;;;;;;;;;6240492;23;20154;-90
